Dades meteomassalio
Diari Summary for Setembre 23, 2017 Units:  Metric    English   Both
« Previous Day
Next Day »
Diari Semanal Mensual Anual Personalitzat
  Maxima: Minima: Mijana:
Temperatura: 27.2 °C 10.0 °C 16.9 °C
Rosada: 17.2 °C 8.8 °C 12.5 °C
Humitat: 94 % 39 % 78 %
Velocitat del vent: 18.5 km/h 0.0 km/h 2.6 km/h
Racha vent: 18.5 km/h - -
Vent:- - West
Pressio: 1024.3 hPa 1020.2 hPa -
Pluja: 0.0 mm    
Historical Graphs
 
 
Tabular Data for Setembre 23, 2017
Time Temperature Dew Point Pressure Wind Wind Speed Wind Gust Humidity Rainfall Rate (Hourly) solar Conditions
00:02 13.3 °C 11.9 °C 1023.9 hPa Calm     91 % 0.0 mm 0.0 W/m2 RA
00:07 13.3 °C 11.9 °C 1023.9 hPa Calm     91 % 0.0 mm 0.0 W/m2 CLR
00:12 13.3 °C 11.9 °C 1023.6 hPa Calm     91 % 0.0 mm 0.0 W/m2 CLR
00:17 13.3 °C 11.9 °C 1023.9 hPa Calm     91 % 0.0 mm 0.0 W/m2 CLR
00:22 13.3 °C 11.9 °C 1023.9 hPa Calm     91 % 0.0 mm 0.0 W/m2 CLR
00:27 13.3 °C 11.9 °C 1023.9 hPa Calm     91 % 0.0 mm 0.0 W/m2 CLR
00:32 13.3 °C 11.9 °C 1023.9 hPa Calm     91 % 0.0 mm 0.0 W/m2 CLR
00:37 13.3 °C 12.1 °C 1023.9 hPa SE 3.7 km/h 3.7 km/h 92 % 0.0 mm 0.0 W/m2 CLR
00:42 13.3 °C 11.9 °C 1023.9 hPa Calm     91 % 0.0 mm 0.0 W/m2 CLR
00:47 13.9 °C 12.4 °C 1023.9 hPa Calm     91 % 0.0 mm 0.0 W/m2 CLR
00:52 13.3 °C 11.9 °C 1023.9 hPa Calm     91 % 0.0 mm 0.0 W/m2 CLR
00:57 13.3 °C 11.9 °C 1023.9 hPa Calm     91 % 0.0 mm 0.0 W/m2 CLR
01:02 13.3 °C 11.9 °C 1023.6 hPa Calm     91 % 0.0 mm 0.0 W/m2 CLR
01:07 13.3 °C 11.9 °C 1023.6 hPa Calm     91 % 0.0 mm 0.0 W/m2 CLR
01:12 13.3 °C 11.9 °C 1023.6 hPa Calm     91 % 0.0 mm 0.0 W/m2 CLR
01:17 13.3 °C 11.9 °C 1023.6 hPa Calm     91 % 0.0 mm 0.0 W/m2 CLR
01:22 13.3 °C 11.9 °C 1023.6 hPa Calm     91 % 0.0 mm 0.0 W/m2 CLR
01:27 13.3 °C 11.9 °C 1023.6 hPa Calm     91 % 0.0 mm 0.0 W/m2 CLR
01:32 13.3 °C 11.9 °C 1023.6 hPa Calm     91 % 0.0 mm 0.0 W/m2 CLR
01:37 13.3 °C 11.9 °C 1023.2 hPa Calm     91 % 0.0 mm 0.0 W/m2 CLR
01:42 12.8 °C 11.3 °C 1023.2 hPa Calm     91 % 0.0 mm 0.0 W/m2 CLR
01:47 12.8 °C 11.3 °C 1023.2 hPa Calm     91 % 0.0 mm 0.0 W/m2 CLR
01:52 12.8 °C 11.3 °C 1023.2 hPa Calm     91 % 0.0 mm 0.0 W/m2 CLR
01:57 12.8 °C 11.3 °C 1023.2 hPa Calm     91 % 0.0 mm 0.0 W/m2 CLR
02:02 12.8 °C 11.3 °C 1023.2 hPa Calm     91 % 0.0 mm 0.0 W/m2 CLR
02:07 12.8 °C 11.3 °C 1022.9 hPa Calm     91 % 0.0 mm 0.0 W/m2 CLR
02:12 12.2 °C 10.8 °C 1022.9 hPa Calm     91 % 0.0 mm 0.0 W/m2 CLR
02:17 12.2 °C 10.8 °C 1022.9 hPa Calm     91 % 0.0 mm 0.0 W/m2 CLR
02:22 12.2 °C 10.8 °C 1022.9 hPa Calm     91 % 0.0 mm 0.0 W/m2 CLR
02:27 12.2 °C 10.8 °C 1022.9 hPa Calm     91 % 0.0 mm 0.0 W/m2 CLR
02:32 12.2 °C 10.9 °C 1022.6 hPa NW 6.4 km/h 6.4 km/h 92 % 0.0 mm 0.0 W/m2 CLR
02:37 12.2 °C 10.9 °C 1022.6 hPa Calm     92 % 0.0 mm 0.0 W/m2 CLR
02:42 12.8 °C 11.5 °C 1022.9 hPa Calm     92 % 0.0 mm 0.0 W/m2 CLR
02:47 12.8 °C 11.3 °C 1022.9 hPa Calm     91 % 0.0 mm 0.0 W/m2 CLR
02:52 12.8 °C 11.5 °C 1022.9 hPa Calm     92 % 0.0 mm 0.0 W/m2 CLR
02:57 12.8 °C 11.5 °C 1023.2 hPa Calm     92 % 0.0 mm 0.0 W/m2 CLR
03:02 12.8 °C 11.5 °C 1023.2 hPa Calm     92 % 0.0 mm 0.0 W/m2 CLR
03:07 12.8 °C 11.5 °C 1022.9 hPa Calm     92 % 0.0 mm 0.0 W/m2 CLR
03:12 12.8 °C 11.5 °C 1022.9 hPa Calm     92 % 0.0 mm 0.0 W/m2 CLR
03:17 12.8 °C 11.5 °C 1022.9 hPa Calm     92 % 0.0 mm 0.0 W/m2 CLR
03:22 12.8 °C 11.5 °C 1022.9 hPa Calm     92 % 0.0 mm 0.0 W/m2 CLR
03:27 12.2 °C 10.9 °C 1022.9 hPa Calm     92 % 0.0 mm 0.0 W/m2 CLR
03:32 12.2 °C 10.9 °C 1022.9 hPa Calm     92 % 0.0 mm 0.0 W/m2 CLR
03:37 12.2 °C 10.9 °C 1022.9 hPa Calm     92 % 0.0 mm 0.0 W/m2 CLR
03:42 12.2 °C 10.9 °C 1022.6 hPa Calm     92 % 0.0 mm 0.0 W/m2 CLR
03:47 12.2 °C 10.9 °C 1022.6 hPa Calm     92 % 0.0 mm 0.0 W/m2 CLR
03:52 12.2 °C 10.9 °C 1022.9 hPa SE 9.3 km/h 9.3 km/h 92 % 0.0 mm 0.0 W/m2 CLR
03:57 12.2 °C 10.9 °C 1022.9 hPa Calm     92 % 0.0 mm 0.0 W/m2 CLR
04:02 12.2 °C 11.1 °C 1022.9 hPa Calm     93 % 0.0 mm 0.0 W/m2 CLR
04:07 12.2 °C 10.9 °C 1022.9 hPa Calm     92 % 0.0 mm 0.0 W/m2 CLR
04:12 12.8 °C 11.5 °C 1022.9 hPa Calm     92 % 0.0 mm 0.0 W/m2 CLR
04:17 12.8 °C 11.5 °C 1022.9 hPa Calm     92 % 0.0 mm 0.0 W/m2 CLR
04:22 12.2 °C 10.9 °C 1022.9 hPa Calm     92 % 0.0 mm 0.0 W/m2 CLR
04:27 12.2 °C 11.1 °C 1022.9 hPa Calm     93 % 0.0 mm 0.0 W/m2 CLR
04:32 12.2 °C 11.1 °C 1022.9 hPa Calm     93 % 0.0 mm 0.0 W/m2 CLR
04:37 12.2 °C 10.9 °C 1022.9 hPa Calm     92 % 0.0 mm 0.0 W/m2 CLR
04:42 11.7 °C 10.4 °C 1022.9 hPa Calm     92 % 0.0 mm 0.0 W/m2 CLR
04:47 11.7 °C 10.6 °C 1022.9 hPa Calm     93 % 0.0 mm 0.0 W/m2 CLR
04:52 11.7 °C 10.6 °C 1022.9 hPa Calm     93 % 0.0 mm 0.0 W/m2 CLR
04:57 11.7 °C 10.6 °C 1022.9 hPa Calm     93 % 0.0 mm 0.0 W/m2 CLR
05:02 11.7 °C 10.4 °C 1022.9 hPa Calm     92 % 0.0 mm 0.0 W/m2 CLR
05:07 11.7 °C 10.4 °C 1022.9 hPa Calm     92 % 0.0 mm 0.0 W/m2 CLR
05:12 11.1 °C 9.8 °C 1022.9 hPa Calm     92 % 0.0 mm 0.0 W/m2 CLR
05:18 11.7 °C 10.4 °C 1022.9 hPa Calm     92 % 0.0 mm 0.0 W/m2 CLR
05:23 11.1 °C 9.8 °C 1022.9 hPa Calm     92 % 0.0 mm 0.0 W/m2 CLR
05:28 11.1 °C 9.8 °C 1023.2 hPa Calm     92 % 0.0 mm 0.0 W/m2 CLR
05:33 11.1 °C 9.8 °C 1023.2 hPa Calm     92 % 0.0 mm 0.0 W/m2 CLR
05:38 11.1 °C 10.0 °C 1023.2 hPa Calm     93 % 0.0 mm 0.0 W/m2 CLR
05:43 11.1 °C 10.0 °C 1022.9 hPa Calm     93 % 0.0 mm 0.0 W/m2 CLR
05:48 10.6 °C 9.4 °C 1022.9 hPa Calm     93 % 0.0 mm 0.0 W/m2 CLR
05:53 10.6 °C 9.4 °C 1022.9 hPa Calm     93 % 0.0 mm 0.0 W/m2 CLR
05:58 10.6 °C 9.4 °C 1023.2 hPa Calm     93 % 0.0 mm 0.0 W/m2 CLR
06:03 10.6 °C 9.4 °C 1023.2 hPa Calm     93 % 0.0 mm 0.0 W/m2 CLR
06:08 10.6 °C 9.4 °C 1023.2 hPa Calm     93 % 0.0 mm 0.0 W/m2 CLR
06:13 10.0 °C 8.8 °C 1023.2 hPa Calm     92 % 0.0 mm 0.0 W/m2 CLR
06:18 10.0 °C 8.8 °C 1023.2 hPa Calm     92 % 0.0 mm 0.0 W/m2 CLR
06:23 10.0 °C 8.8 °C 1023.2 hPa Calm     92 % 0.0 mm 0.0 W/m2 CLR
06:28 10.0 °C 8.9 °C 1022.9 hPa Calm     93 % 0.0 mm 0.0 W/m2 CLR
06:33 10.0 °C 8.8 °C 1023.2 hPa Calm     92 % 0.0 mm 0.0 W/m2 CLR
06:38 10.0 °C 8.8 °C 1023.2 hPa Calm     92 % 0.0 mm 0.0 W/m2 CLR
06:43 10.0 °C 8.8 °C 1023.2 hPa Calm     92 % 0.0 mm 0.0 W/m2 CLR
06:48 10.0 °C 8.9 °C 1023.2 hPa Calm     93 % 0.0 mm 0.0 W/m2 CLR
06:53 10.0 °C 8.9 °C 1023.2 hPa Calm     93 % 0.0 mm 0.0 W/m2 CLR
06:58 10.0 °C 8.9 °C 1023.2 hPa Calm     93 % 0.0 mm 0.0 W/m2 CLR
07:03 10.0 °C 8.9 °C 1023.2 hPa Calm     93 % 0.0 mm 0.0 W/m2 CLR
07:08 10.6 °C 9.4 °C 1023.2 hPa Calm     93 % 0.0 mm 0.0 W/m2 CLR
07:13 11.1 °C 10.0 °C 1023.2 hPa Calm     93 % 0.0 mm 0.0 W/m2 CLR
07:18 11.1 °C 10.0 °C 1023.2 hPa Calm     93 % 0.0 mm 0.0 W/m2 CLR
07:23 11.1 °C 10.0 °C 1023.6 hPa Calm     93 % 0.0 mm 0.0 W/m2 CLR
07:28 11.7 °C 10.6 °C 1023.6 hPa Calm     93 % 0.0 mm 0.0 W/m2 CLR
07:33 11.7 °C 10.6 °C 1023.6 hPa Calm     93 % 0.0 mm 0.0 W/m2 CLR
07:38 11.7 °C 10.6 °C 1023.6 hPa Calm     93 % 0.0 mm 0.0 W/m2 OVC
07:43 11.7 °C 10.6 °C 1023.6 hPa Calm     93 % 0.0 mm 0.0 W/m2 OVC
07:48 11.7 °C 10.6 °C 1023.6 hPa Calm     93 % 0.0 mm 0.0 W/m2 OVC
07:53 11.7 °C 10.6 °C 1023.6 hPa Calm     93 % 0.0 mm 0.0 W/m2 OVC
07:58 12.2 °C 11.1 °C 1023.6 hPa Calm     93 % 0.0 mm 0.0 W/m2 OVC
08:03 12.2 °C 11.1 °C 1023.6 hPa Calm     93 % 0.0 mm 7.0 W/m2 BKN
08:08 12.2 °C 11.1 °C 1023.6 hPa Calm     93 % 0.0 mm 7.0 W/m2 BKN
08:13 12.2 °C 11.1 °C 1023.9 hPa Calm     93 % 0.0 mm 7.0 W/m2 BKN
08:18 12.2 °C 11.1 °C 1023.6 hPa Calm     93 % 0.0 mm 9.0 W/m2 BKN
08:23 12.2 °C 11.1 °C 1023.9 hPa Calm     93 % 0.0 mm 9.0 W/m2 BKN
08:28 12.8 °C 11.7 °C 1023.9 hPa Calm     93 % 0.0 mm 9.0 W/m2 BKN
08:33 12.8 °C 11.7 °C 1023.9 hPa Calm     93 % 0.0 mm 11.0 W/m2 BKN
08:38 12.8 °C 11.7 °C 1023.9 hPa Calm     93 % 0.0 mm 12.0 W/m2 BKN
08:43 12.8 °C 11.7 °C 1023.9 hPa Calm     93 % 0.0 mm 14.0 W/m2 BKN
08:53 12.2 °C 11.1 °C 1023.9 hPa Calm     93 % 0.0 mm 26.0 W/m2 BKN
08:59 12.8 °C 11.7 °C 1023.9 hPa Calm     93 % 0.0 mm 30.0 W/m2 BKN
09:04 12.8 °C 11.7 °C 1023.9 hPa Calm     93 % 0.0 mm 37.0 W/m2 BKN
09:06 12.8 °C 11.7 °C 1023.9 hPa Calm     93 % 0.0 mm 58.0 W/m2 BKN
09:11 12.8 °C 11.7 °C 1023.9 hPa Calm     93 % 0.0 mm 74.0 W/m2 SCT
09:16 12.8 °C 11.7 °C 1023.9 hPa Calm     93 % 0.0 mm 83.0 W/m2 FEW
09:21 12.8 °C 11.7 °C 1024.3 hPa Calm     93 % 0.0 mm 70.0 W/m2 FEW
09:26 12.8 °C 11.7 °C 1024.3 hPa Calm     93 % 0.0 mm 77.0 W/m2 FEW
09:31 12.8 °C 11.7 °C 1024.3 hPa Calm     93 % 0.0 mm 83.0 W/m2 FEW
09:36 13.3 °C 12.2 °C 1024.3 hPa Calm     93 % 0.0 mm 120.0 W/m2 CLR
09:41 13.3 °C 12.2 °C 1024.3 hPa Calm     93 % 0.0 mm 76.0 W/m2 CLR
09:46 13.3 °C 12.2 °C 1024.3 hPa Calm     93 % 0.0 mm 81.0 W/m2 CLR
09:51 13.3 °C 12.2 °C 1024.3 hPa Calm     93 % 0.0 mm 121.0 W/m2 CLR
09:56 13.3 °C 12.4 °C 1024.3 hPa Calm     94 % 0.0 mm 121.0 W/m2 CLR
10:01 13.3 °C 12.2 °C 1024.3 hPa Calm     93 % 0.0 mm 141.0 W/m2 CLR
10:06 13.9 °C 12.8 °C 1024.3 hPa Calm     93 % 0.0 mm 151.0 W/m2 CLR
10:11 13.9 °C 12.9 °C 1024.3 hPa Calm     94 % 0.0 mm 148.0 W/m2 CLR
10:16 13.9 °C 12.9 °C 1024.3 hPa Calm     94 % 0.0 mm 135.0 W/m2 CLR
10:21 14.4 °C 13.3 °C 1024.3 hPa Calm     93 % 0.0 mm 171.0 W/m2 CLR
10:26 14.4 °C 13.5 °C 1024.3 hPa Calm     94 % 0.0 mm 190.0 W/m2 CLR
10:31 15.0 °C 14.1 °C 1024.3 hPa Calm     94 % 0.0 mm 216.0 W/m2 CLR
10:36 15.0 °C 14.1 °C 1024.3 hPa Calm     94 % 0.0 mm 216.0 W/m2 CLR
10:41 15.0 °C 14.1 °C 1024.3 hPa Calm     94 % 0.0 mm 241.0 W/m2 CLR
10:46 15.0 °C 14.1 °C 1024.3 hPa Calm     94 % 0.0 mm 244.0 W/m2 CLR
10:51 15.6 °C 14.4 °C 1024.3 hPa Calm     93 % 0.0 mm 244.0 W/m2 CLR
10:56 15.6 °C 14.4 °C 1024.3 hPa Calm     93 % 0.0 mm 255.0 W/m2 CLR
11:01 15.6 °C 14.4 °C 1024.3 hPa Calm     93 % 0.0 mm 260.0 W/m2 CLR
11:06 15.6 °C 14.4 °C 1024.3 hPa Calm     93 % 0.0 mm 253.0 W/m2 CLR
11:11 16.1 °C 15.0 °C 1024.3 hPa Calm   0.2 km/h 93 % 0.0 mm 287.0 W/m2 CLR
11:16 16.1 °C 15.0 °C 1024.3 hPa Calm     93 % 0.0 mm 285.0 W/m2 CLR
11:21 16.1 °C 14.8 °C 1024.3 hPa Calm     92 % 0.0 mm 287.0 W/m2 CLR
11:26 16.7 °C 15.3 °C 1024.3 hPa Calm     92 % 0.0 mm 260.0 W/m2 CLR
11:31 17.2 °C 15.9 °C 1024.3 hPa NW 3.7 km/h 3.7 km/h 92 % 0.0 mm 299.0 W/m2 CLR
11:36 17.2 °C 15.9 °C 1024.3 hPa Calm     92 % 0.0 mm 673.0 W/m2 CLR
11:41 17.2 °C 15.7 °C 1024.3 hPa NNW 1.9 km/h   91 % 0.0 mm 399.0 W/m2 CLR
11:46 17.8 °C 16.1 °C 1024.3 hPa Calm     90 % 0.0 mm 605.0 W/m2 CLR
11:51 17.8 °C 15.9 °C 1024.3 hPa Calm     89 % 0.0 mm 626.0 W/m2 CLR
11:56 18.3 °C 16.1 °C 1023.9 hPa Calm     87 % 0.0 mm 628.0 W/m2 CLR
12:01 18.3 °C 15.9 °C 1023.9 hPa NNW 3.7 km/h 3.7 km/h 86 % 0.0 mm 633.0 W/m2 CLR
12:06 18.3 °C 15.8 °C 1023.9 hPa NNW 1.9 km/h 1.9 km/h 85 % 0.0 mm 642.0 W/m2 CLR
12:11 18.3 °C 15.2 °C 1023.9 hPa NW 3.7 km/h 3.7 km/h 82 % 0.0 mm 649.0 W/m2 CLR
12:16 18.9 °C 15.7 °C 1023.6 hPa NW 3.7 km/h 3.7 km/h 82 % 0.0 mm 656.0 W/m2 CLR
12:21 18.9 °C 15.4 °C 1023.6 hPa NNW 8.0 km/h 8.0 km/h 80 % 0.0 mm 664.0 W/m2 CLR
12:27 19.4 °C 15.9 °C 1023.6 hPa NW 9.7 km/h 9.7 km/h 80 % 0.0 mm 671.0 W/m2 CLR
12:31 19.4 °C 15.9 °C 1023.6 hPa NNW 7.4 km/h 7.4 km/h 80 % 0.0 mm 679.0 W/m2 CLR
12:36 19.4 °C 15.5 °C 1023.6 hPa NW 9.3 km/h 9.3 km/h 78 % 0.0 mm 682.0 W/m2 CLR
12:37 19.4 °C 15.5 °C 1023.6 hPa NW 9.3 km/h 9.3 km/h 78 % 0.0 mm 682.0 W/m2 CLR
12:42 20.0 °C 16.1 °C 1023.2 hPa NNW 13.0 km/h 13.0 km/h 78 % 0.0 mm 687.0 W/m2 CLR
12:47 20.0 °C 15.8 °C 1023.2 hPa WNW 16.7 km/h 16.7 km/h 77 % 0.0 mm 693.0 W/m2 CLR
12:52 20.0 °C 15.8 °C 1023.2 hPa NW 6.4 km/h 6.4 km/h 77 % 0.0 mm 696.0 W/m2 CLR
12:57 20.0 °C 15.8 °C 1023.2 hPa NNW 13.0 km/h 13.0 km/h 77 % 0.0 mm 703.0 W/m2 CLR
13:02 20.0 °C 15.7 °C 1023.2 hPa North 5.6 km/h 5.6 km/h 76 % 0.0 mm 707.0 W/m2 CLR
13:07 20.6 °C 15.9 °C 1023.2 hPa North 13.0 km/h 13.0 km/h 75 % 0.0 mm 714.0 W/m2 CLR
13:12 20.6 °C 15.8 °C 1023.2 hPa NNW 7.4 km/h 7.4 km/h 74 % 0.0 mm 717.0 W/m2 CLR
13:17 20.6 °C 15.8 °C 1023.2 hPa NNW 14.8 km/h 14.8 km/h 74 % 0.0 mm 719.0 W/m2 CLR
13:22 21.1 °C 16.1 °C 1023.2 hPa NNW 9.7 km/h 9.7 km/h 73 % 0.0 mm 721.0 W/m2 CLR
13:27 21.1 °C 16.1 °C 1022.9 hPa North 11.1 km/h 11.1 km/h 73 % 0.0 mm 722.0 W/m2 CLR
13:32 21.1 °C 15.9 °C 1022.9 hPa NNW 13.0 km/h 13.0 km/h 72 % 0.0 mm 724.0 W/m2 CLR
13:37 21.1 °C 15.9 °C 1022.9 hPa WNW 7.4 km/h 7.4 km/h 72 % 0.0 mm 728.0 W/m2 CLR
13:42 21.1 °C 15.9 °C 1022.9 hPa West 5.6 km/h 5.6 km/h 72 % 0.0 mm 728.0 W/m2 CLR
13:47 21.7 °C 16.2 °C 1022.9 hPa NNE 9.3 km/h 9.3 km/h 71 % 0.0 mm 729.0 W/m2 CLR
13:52 21.7 °C 15.9 °C 1022.6 hPa NW 5.6 km/h 5.6 km/h 70 % 0.0 mm 729.0 W/m2 CLR
13:57 22.2 °C 16.3 °C 1022.6 hPa NNW 12.9 km/h 12.9 km/h 69 % 0.0 mm 728.0 W/m2 CLR
14:02 22.2 °C 16.3 °C 1022.6 hPa NNW 9.3 km/h 9.3 km/h 69 % 0.0 mm 724.0 W/m2 CLR
14:07 22.2 °C 16.1 °C 1022.6 hPa NW 9.3 km/h 9.3 km/h 68 % 0.0 mm 726.0 W/m2 CLR
14:12 22.8 °C 16.3 °C 1022.2 hPa North 14.8 km/h 14.8 km/h 67 % 0.0 mm 724.0 W/m2 CLR
14:17 22.8 °C 16.1 °C 1022.2 hPa NNW 7.4 km/h 7.4 km/h 66 % 0.0 mm 722.0 W/m2 CLR
14:22 22.8 °C 16.1 °C 1022.2 hPa NNW 13.0 km/h 13.0 km/h 66 % 0.0 mm 721.0 W/m2 CLR
14:27 23.3 °C 16.6 °C 1022.2 hPa North 8.0 km/h 8.0 km/h 66 % 0.0 mm 717.0 W/m2 CLR
14:32 23.3 °C 16.4 °C 1022.2 hPa Calm     65 % 0.0 mm 717.0 W/m2 CLR
14:37 23.3 °C 16.1 °C 1022.2 hPa NW 5.6 km/h 5.6 km/h 64 % 0.0 mm 712.0 W/m2 CLR
14:42 23.9 °C 16.9 °C 1021.9 hPa Calm     65 % 0.0 mm 708.0 W/m2 CLR
14:47 23.9 °C 16.7 °C 1021.9 hPa NW 14.8 km/h 14.8 km/h 64 % 0.0 mm 705.0 W/m2 CLR
14:52 24.4 °C 17.2 °C 1021.9 hPa NNW 1.6 km/h   64 % 0.0 mm 700.0 W/m2 CLR
14:57 24.4 °C 16.7 °C 1021.6 hPa NW 5.6 km/h 5.6 km/h 62 % 0.0 mm 696.0 W/m2 CLR
15:02 24.4 °C 16.7 °C 1021.6 hPa NW 9.3 km/h 9.3 km/h 62 % 0.0 mm 689.0 W/m2 CLR
15:07 24.4 °C 16.4 °C 1021.6 hPa NNW 14.8 km/h 14.8 km/h 61 % 0.0 mm 686.0 W/m2 CLR
15:12 24.4 °C 16.4 °C 1021.6 hPa WNW 5.6 km/h   61 % 0.0 mm 679.0 W/m2 CLR
15:17 25.0 °C 16.4 °C 1021.6 hPa WNW 13.0 km/h 13.0 km/h 59 % 0.0 mm 671.0 W/m2 CLR
15:22 25.0 °C 16.2 °C 1021.6 hPa NW 13.0 km/h 13.0 km/h 58 % 0.0 mm 664.0 W/m2 CLR
15:27 25.0 °C 16.7 °C 1021.6 hPa West 14.8 km/h 14.8 km/h 60 % 0.0 mm 656.0 W/m2 CLR
15:32 25.0 °C 16.4 °C 1021.2 hPa West 13.0 km/h 13.0 km/h 59 % 0.0 mm 652.0 W/m2 CLR
15:37 25.0 °C 15.9 °C 1021.2 hPa Calm     57 % 0.0 mm 647.0 W/m2 CLR
15:42 25.6 °C 16.4 °C 1021.2 hPa WNW 6.4 km/h 6.4 km/h 57 % 0.0 mm 638.0 W/m2 CLR
15:47 26.1 °C 16.7 °C 1021.2 hPa WNW 6.4 km/h 6.4 km/h 56 % 0.0 mm 628.0 W/m2 CLR
15:52 25.6 °C 15.6 °C 1020.9 hPa West 13.0 km/h 13.0 km/h 54 % 0.0 mm 619.0 W/m2 CLR
15:57 25.6 °C 15.6 °C 1020.9 hPa West 11.1 km/h 11.1 km/h 54 % 0.0 mm 610.0 W/m2 CLR
16:02 25.6 °C 15.6 °C 1020.9 hPa WNW 11.3 km/h 11.3 km/h 54 % 0.0 mm 601.0 W/m2 CLR
16:07 25.6 °C 14.9 °C 1020.9 hPa West 5.6 km/h   52 % 0.0 mm 591.0 W/m2 CLR
16:12 25.6 °C 15.3 °C 1020.9 hPa Calm     53 % 0.0 mm 584.0 W/m2 CLR
16:17 25.6 °C 14.9 °C 1020.9 hPa Calm     52 % 0.0 mm 571.0 W/m2 CLR
16:22 26.1 °C 15.2 °C 1020.9 hPa North 6.4 km/h 6.4 km/h 51 % 0.0 mm 538.0 W/m2 CLR
16:27 25.6 °C 14.1 °C 1020.9 hPa NNE 5.6 km/h 5.6 km/h 49 % 0.0 mm 545.0 W/m2 CLR
16:32 25.6 °C 14.1 °C 1020.9 hPa Calm     49 % 0.0 mm 531.0 W/m2 CLR
16:37 26.1 °C 14.2 °C 1020.5 hPa Calm     48 % 0.0 mm 522.0 W/m2 CLR
16:42 26.7 °C 14.7 °C 1020.5 hPa Calm     48 % 0.0 mm 512.0 W/m2 CLR
16:47 27.2 °C 14.9 °C 1020.5 hPa Calm     47 % 0.0 mm 501.0 W/m2 CLR
16:52 27.2 °C 14.9 °C 1020.5 hPa NW 8.0 km/h 8.0 km/h 47 % 0.0 mm 485.0 W/m2 CLR
16:57 26.7 °C 14.1 °C 1020.5 hPa WNW 3.7 km/h 3.7 km/h 46 % 0.0 mm 469.0 W/m2 CLR
17:02 26.1 °C 13.9 °C 1020.5 hPa NW 5.6 km/h   47 % 0.0 mm 455.0 W/m2 CLR
17:07 26.1 °C 13.2 °C 1020.5 hPa Calm     45 % 0.0 mm 443.0 W/m2 CLR
17:12 26.7 °C 13.7 °C 1020.2 hPa Calm     45 % 0.0 mm 429.0 W/m2 CLR
17:18 26.7 °C 13.4 °C 1020.2 hPa NW 5.6 km/h   44 % 0.0 mm 417.0 W/m2 CLR
17:22 26.7 °C 13.4 °C 1020.2 hPa Calm     44 % 0.0 mm 397.0 W/m2 CLR
17:23 26.7 °C 13.4 °C 1020.2 hPa Calm     44 % 0.0 mm 397.0 W/m2 CLR
17:28 26.1 °C 12.6 °C 1020.2 hPa NW 13.0 km/h 13.0 km/h 43 % 0.0 mm 387.0 W/m2 CLR
17:33 26.1 °C 12.6 °C 1020.2 hPa Calm     43 % 0.0 mm 373.0 W/m2 CLR
17:38 26.1 °C 12.2 °C 1020.2 hPa Calm   0.2 km/h 42 % 0.0 mm 359.0 W/m2 CLR
17:43 26.1 °C 11.4 °C 1020.2 hPa NNW 1.9 km/h   40 % 0.0 mm 346.0 W/m2 CLR
17:48 26.1 °C 11.8 °C 1020.2 hPa North 5.6 km/h 5.6 km/h 41 % 0.0 mm 327.0 W/m2 CLR
17:53 26.1 °C 11.8 °C 1020.2 hPa NNW 7.4 km/h 7.4 km/h 41 % 0.0 mm 313.0 W/m2 CLR
17:58 25.6 °C 11.3 °C 1020.2 hPa NNW 13.0 km/h 13.0 km/h 41 % 0.0 mm 299.0 W/m2 CLR
18:03 25.6 °C 10.9 °C 1020.2 hPa Calm     40 % 0.0 mm 285.0 W/m2 CLR
18:08 25.6 °C 10.6 °C 1020.2 hPa Calm     39 % 0.0 mm 271.0 W/m2 CLR
18:13 25.6 °C 10.6 °C 1020.2 hPa Calm     39 % 0.0 mm 253.0 W/m2 CLR
18:18 25.6 °C 10.9 °C 1020.2 hPa WNW 5.6 km/h 5.6 km/h 40 % 0.0 mm 237.0 W/m2 CLR
18:23 25.6 °C 11.3 °C 1020.2 hPa NNW 9.3 km/h 9.3 km/h 41 % 0.0 mm 220.0 W/m2 CLR
18:28 25.0 °C 10.8 °C 1020.2 hPa NW 5.6 km/h 5.6 km/h 41 % 0.0 mm 200.0 W/m2 CLR
18:33 25.0 °C 11.2 °C 1020.2 hPa NNW 1.9 km/h 1.9 km/h 42 % 0.0 mm 186.0 W/m2 CLR
18:38 24.4 °C 10.3 °C 1020.2 hPa NW 5.6 km/h 5.6 km/h 41 % 0.0 mm 165.0 W/m2 CLR
18:43 24.4 °C 11.1 °C 1020.2 hPa NW 1.9 km/h 1.9 km/h 43 % 0.0 mm 148.0 W/m2 CLR
18:48 24.4 °C 11.4 °C 1020.2 hPa Calm     44 % 0.0 mm 132.0 W/m2 CLR
18:53 24.4 °C 11.4 °C 1020.2 hPa NW 5.6 km/h 5.6 km/h 44 % 0.0 mm 114.0 W/m2 CLR
18:58 23.9 °C 10.6 °C 1020.2 hPa NW 5.6 km/h 5.6 km/h 43 % 0.0 mm 98.0 W/m2 CLR
19:03 23.9 °C 12.8 °C 1020.2 hPa North 18.5 km/h 18.5 km/h 50 % 0.0 mm 84.0 W/m2 FEW
19:08 23.9 °C 13.7 °C 1020.2 hPa NE 16.7 km/h 16.7 km/h 53 % 0.0 mm 70.0 W/m2 FEW
19:13 23.9 °C 14.3 °C 1020.2 hPa NNE 13.0 km/h 13.0 km/h 55 % 0.0 mm 54.0 W/m2 SCT
19:18 23.9 °C 14.3 °C 1020.2 hPa NE 14.8 km/h 14.8 km/h 55 % 0.0 mm 46.0 W/m2 SCT
19:23 23.3 °C 14.3 °C 1020.2 hPa NE 11.1 km/h 11.1 km/h 57 % 0.0 mm 35.0 W/m2 BKN
19:28 23.3 °C 14.6 °C 1020.2 hPa NE 14.8 km/h 14.8 km/h 58 % 0.0 mm 26.0 W/m2 BKN
19:33 22.8 °C 14.3 °C 1020.2 hPa NE 6.4 km/h 6.4 km/h 59 % 0.0 mm 19.0 W/m2 BKN
19:38 22.2 °C 14.1 °C 1020.2 hPa ENE 9.3 km/h 9.3 km/h 60 % 0.0 mm 16.0 W/m2 BKN
19:43 22.2 °C 14.1 °C 1020.2 hPa NE 7.4 km/h 7.4 km/h 60 % 0.0 mm 12.0 W/m2 BKN
19:48 21.7 °C 13.8 °C 1020.2 hPa ENE 9.3 km/h 9.3 km/h 61 % 0.0 mm 9.0 W/m2 BKN
19:53 21.7 °C 13.8 °C 1020.2 hPa Calm     61 % 0.0 mm 5.0 W/m2 OVC
19:58 21.1 °C 13.6 °C 1020.2 hPa Calm     62 % 0.0 mm 0.0 W/m2 OVC
20:03 20.6 °C 13.0 °C 1020.5 hPa East 4.8 km/h 4.8 km/h 62 % 0.0 mm 0.0 W/m2 CLR
20:08 20.6 °C 13.0 °C 1020.5 hPa East 13.0 km/h 13.0 km/h 62 % 0.0 mm 0.0 W/m2 CLR
20:13 20.0 °C 12.5 °C 1020.5 hPa East 7.4 km/h   62 % 0.0 mm 0.0 W/m2 CLR
20:18 19.4 °C 11.9 °C 1020.5 hPa Calm     62 % 0.0 mm 0.0 W/m2 CLR
20:23 19.4 °C 12.2 °C 1020.5 hPa East 11.1 km/h 11.1 km/h 63 % 0.0 mm 0.0 W/m2 CLR
20:28 18.9 °C 11.7 °C 1020.5 hPa Calm     63 % 0.0 mm 0.0 W/m2 CLR
20:33 18.3 °C 11.4 °C 1020.5 hPa Calm     64 % 0.0 mm 0.0 W/m2 CLR
20:38 18.3 °C 11.4 °C 1020.5 hPa Calm     64 % 0.0 mm 0.0 W/m2 CLR
20:43 17.8 °C 10.9 °C 1020.5 hPa Calm     64 % 0.0 mm 0.0 W/m2 CLR
20:48 17.8 °C 11.1 °C 1020.9 hPa Calm     65 % 0.0 mm 0.0 W/m2 CLR
20:53 17.2 °C 11.1 °C 1020.5 hPa Calm     67 % 0.0 mm 0.0 W/m2 CLR
20:58 16.7 °C 10.5 °C 1020.9 hPa Calm     67 % 0.0 mm 0.0 W/m2 CLR
21:03 16.7 °C 10.7 °C 1020.9 hPa Calm     68 % 0.0 mm 0.0 W/m2 CLR
21:08 16.1 °C 10.4 °C 1020.9 hPa Calm     69 % 0.0 mm 0.0 W/m2 CLR
21:13 16.1 °C 10.4 °C 1020.9 hPa Calm     69 % 0.0 mm 0.0 W/m2 CLR
21:18 16.1 °C 10.4 °C 1020.9 hPa Calm     69 % 0.0 mm 0.0 W/m2 CLR
21:24 16.1 °C 10.6 °C 1020.9 hPa Calm     70 % 0.0 mm 0.0 W/m2 CLR
21:29 15.6 °C 10.5 °C 1020.9 hPa Calm     72 % 0.0 mm 0.0 W/m2 CLR
21:34 15.6 °C 10.5 °C 1021.2 hPa Calm     72 % 0.0 mm 0.0 W/m2 CLR
21:39 15.6 °C 10.5 °C 1021.2 hPa Calm     72 % 0.0 mm 0.0 W/m2 CLR
21:44 15.6 °C 10.3 °C 1021.2 hPa Calm     71 % 0.0 mm 0.0 W/m2 CLR
21:49 15.6 °C 10.5 °C 1021.2 hPa Calm     72 % 0.0 mm 0.0 W/m2 CLR
21:54 15.6 °C 10.7 °C 1021.2 hPa Calm     73 % 0.0 mm 0.0 W/m2 CLR
21:59 15.6 °C 10.9 °C 1021.2 hPa Calm     74 % 0.0 mm 0.0 W/m2 CLR
22:04 15.0 °C 10.4 °C 1021.2 hPa Calm     74 % 0.0 mm 0.0 W/m2 CLR
22:05 15.0 °C 10.4 °C 1021.2 hPa Calm     74 % 0.0 mm 0.0 W/m2 CLR
22:10 15.0 °C 10.6 °C 1021.2 hPa Calm     75 % 0.0 mm 0.0 W/m2 CLR
22:15 15.0 °C 10.6 °C 1021.2 hPa Calm     75 % 0.0 mm 0.0 W/m2 CLR
22:20 15.0 °C 10.8 °C 1021.2 hPa Calm     76 % 0.0 mm 0.0 W/m2 CLR
22:25 15.0 °C 11.0 °C 1021.6 hPa Calm     77 % 0.0 mm 0.0 W/m2 CLR
22:30 14.4 °C 10.3 °C 1021.6 hPa Calm     76 % 0.0 mm 0.0 W/m2 CLR
22:35 14.4 °C 10.4 °C 1021.6 hPa Calm     77 % 0.0 mm 0.0 W/m2 CLR
22:40 14.4 °C 10.4 °C 1021.6 hPa Calm     77 % 0.0 mm 0.0 W/m2 CLR
22:45 14.4 °C 10.7 °C 1021.6 hPa Calm     78 % 0.0 mm 0.0 W/m2 CLR
22:50 14.4 °C 10.7 °C 1021.6 hPa Calm     78 % 0.0 mm 0.0 W/m2 CLR
22:55 14.4 °C 10.8 °C 1021.6 hPa Calm     79 % 0.0 mm 0.0 W/m2 CLR
23:00 14.4 °C 10.8 °C 1021.6 hPa Calm     79 % 0.0 mm 0.0 W/m2 CLR
23:05 13.9 °C 10.5 °C 1021.6 hPa Calm     80 % 0.0 mm 0.0 W/m2 CLR
23:10 13.9 °C 10.5 °C 1021.6 hPa Calm     80 % 0.0 mm 0.0 W/m2 CLR
23:15 13.9 °C 10.7 °C 1021.6 hPa Calm     81 % 0.0 mm 0.0 W/m2 CLR
23:20 13.9 °C 10.7 °C 1021.6 hPa Calm     81 % 0.0 mm 0.0 W/m2 CLR
23:25 13.9 °C 10.7 °C 1021.6 hPa Calm     81 % 0.0 mm 0.0 W/m2 CLR
23:30 13.9 °C 10.9 °C 1021.6 hPa Calm     82 % 0.0 mm 0.0 W/m2 CLR
23:35 13.9 °C 10.9 °C 1021.6 hPa Calm     82 % 0.0 mm 0.0 W/m2 CLR
23:40 13.9 °C 10.9 °C 1021.6 hPa Calm     82 % 0.0 mm 0.0 W/m2 CLR
23:45 13.9 °C 10.9 °C 1021.6 hPa Calm     82 % 0.0 mm 0.0 W/m2 CLR
23:50 13.9 °C 11.1 °C 1021.9 hPa Calm     83 % 0.0 mm 0.0 W/m2 CLR
23:55 13.9 °C 11.2 °C 1021.9 hPa Calm     84 % 0.0 mm 0.0 W/m2 CLR
Lo Temps de Massalio
Compliments of Weather Underground - 1.25 mb